עמוד ראשי
METAR-TAF:

METAR-TAF

שדות תעופה :

מרסא מטרוח, מצרים

קו רוחב: 31-20N, קו אורך: 027-13E, גובה: 25מטר

תצפית מזג אוויר נוכחית

הדו"ח נערך לפני 3 שעות ו 45דקות, בשעה 23:00 UTC
רוח 4קשר מכיוון מערב/דרום-מערב
טמפרטורת 25 צלסיוס
לחות 57%
לחץ 1013 hPa
ראות 10 קילומטר או יותר
ללא עננים שבסיסם נמוך מ 5000 רגל או קומולונימבוס

METAR: HEMM 132300Z 24004KT CAVOK 25/16 Q1013 NOSIG

זמן: 04:45 (02:45 UTC)

תחזית

הדו"ח נערך לפני 3 שעות ו 45דקות, בשעה 23:00 UTC
תחזית בתוקף מ 14 ב 00 UTC עד 15 ב 06 UTC
רוח 6קשר מכיוון מערב/צפון-מערב
ראות 10 קילומטר או יותר
ללא עננים שבסיסם נמוך מ 5000 רגל או קומולונימבוס
יעשה מ
14 ב 08 UTC עד 14 ב 10 UTC
רוח 12קשר מכיוון צפון/צפון-מערב

TAF: HEMM 132300Z 1400/1506 30006KT CAVOK BECMG 1408/1410 34012KT

תצפיות ותחזיות מזג אוויר לגבי יותר מ- 4,000 שדות תעופה ברחבי העולם. דוחות METAR ו- TAF.

התחנות הזמינות מסומנות בנקודות צהובות ואדומות על גבי המפה.

העבר את העכבר לנקודה הצבעונית על מנת לראות את שם התחנה.

לאחר מכן, לחץ כדי לראות את תוכן ואת תחזיות מזג האוויר.

כדי לשנות את המפה: לחץ על הכפתורים הירוקים עם הפלוס השחור כדי להתקרב; על הכפתור הירוק עם המקף כדי להתרחק; או בחיצים הירוקים למפות סמוכות.


METAR-TAF: